createdAt,value
2018-09-30T00:00:52.808Z,74.98
2018-09-30T00:03:21.005Z,74.36
2018-09-30T00:05:49.179Z,74.07
2018-09-30T00:08:17.397Z,76.08
2018-09-30T00:10:45.580Z,76.24
2018-09-30T00:13:13.788Z,76.03
2018-09-30T00:15:41.981Z,76.13
2018-09-30T00:18:10.161Z,75.22
2018-09-30T00:20:38.436Z,75.07
2018-09-30T00:23:06.744Z,75.03
2018-09-30T00:25:40.113Z,75.02
2018-09-30T00:28:08.290Z,75.44
2018-09-30T00:30:36.510Z,76.41
2018-09-30T00:33:04.729Z,75.98
2018-09-30T00:35:32.915Z,75.73
2018-09-30T00:38:01.104Z,74.48
2018-09-30T00:40:29.305Z,74.34
2018-09-30T00:42:57.501Z,75.18
2018-09-30T00:45:25.700Z,76.03
2018-09-30T00:47:53.884Z,76.23
2018-09-30T00:50:22.376Z,76.05
2018-09-30T00:52:50.587Z,76.53
2018-09-30T00:55:18.776Z,74.51
2018-09-30T00:57:46.995Z,74.34
2018-09-30T01:00:15.200Z,74.32
2018-09-30T01:02:43.391Z,75.57
2018-09-30T01:05:11.611Z,75.65
2018-09-30T01:07:39.818Z,75.95
2018-09-30T01:10:08.044Z,76.09
2018-09-30T01:12:36.228Z,76.75
2018-09-30T01:15:04.439Z,76.11
2018-09-30T01:17:32.606Z,75.15
2018-09-30T01:20:00.873Z,75.30
2018-09-30T01:22:29.003Z,76.49
2018-09-30T01:24:57.171Z,76.19
2018-09-30T01:27:25.393Z,75.61
2018-09-30T01:29:53.577Z,76.30
2018-09-30T01:32:21.754Z,75.03
2018-09-30T01:34:49.930Z,76.15
2018-09-30T01:37:18.111Z,75.89
2018-09-30T01:39:46.287Z,76.88
2018-09-30T01:42:14.483Z,76.95
2018-09-30T01:44:42.672Z,76.12
2018-09-30T01:47:10.851Z,76.08
2018-09-30T01:49:39.033Z,75.34
2018-09-30T01:53:10.459Z,76.45
2018-09-30T01:55:38.797Z,75.90
2018-09-30T01:58:07.001Z,75.93
2018-09-30T02:00:35.175Z,76.46
2018-09-30T02:03:03.390Z,76.55
2018-09-30T02:05:31.565Z,76.70
2018-09-30T02:07:59.769Z,76.84
2018-09-30T02:10:28.004Z,76.77
2018-09-30T02:12:56.189Z,76.02
2018-09-30T02:15:24.364Z,76.27
2018-09-30T02:17:52.576Z,76.27
2018-09-30T02:20:20.763Z,77.15
2018-09-30T02:22:48.959Z,79.58
2018-09-30T02:25:17.117Z,78.48
2018-09-30T02:27:45.308Z,79.30
2018-09-30T02:30:13.497Z,80.73
2018-09-30T02:32:41.673Z,80.48
2018-09-30T02:35:09.863Z,81.03
2018-09-30T02:37:38.057Z,81.33
2018-09-30T02:40:06.269Z,80.98
2018-09-30T02:42:34.465Z,82.60
2018-09-30T02:45:02.665Z,82.56
2018-09-30T02:47:30.856Z,82.51
2018-09-30T02:49:59.032Z,83.01
2018-09-30T02:52:27.205Z,82.72
2018-09-30T02:54:55.393Z,82.55
2018-09-30T02:57:23.564Z,81.75
2018-09-30T02:59:51.776Z,82.38
2018-09-30T03:02:20.040Z,83.27
2018-09-30T03:04:48.231Z,82.62
2018-09-30T03:07:21.663Z,82.27
2018-09-30T03:09:49.844Z,83.54
2018-09-30T03:12:18.039Z,84.02
2018-09-30T03:14:46.228Z,81.97
2018-09-30T03:17:14.424Z,81.60
2018-09-30T03:19:42.600Z,81.16
2018-09-30T03:22:10.821Z,81.45
2018-09-30T03:24:38.992Z,81.04
2018-09-30T03:27:07.176Z,80.92
2018-09-30T03:29:35.371Z,80.02
2018-09-30T03:32:03.548Z,80.65
2018-09-30T03:34:31.774Z,81.55
2018-09-30T03:36:59.967Z,80.69
2018-09-30T03:39:28.214Z,82.72
2018-09-30T03:41:56.404Z,81.35
2018-09-30T03:44:24.587Z,81.11
2018-09-30T03:46:52.775Z,81.58
2018-09-30T03:49:20.960Z,82.08
2018-09-30T03:51:49.155Z,81.09
2018-09-30T03:54:17.325Z,80.65
2018-09-30T03:56:45.610Z,81.48
2018-09-30T03:59:13.731Z,81.62
2018-09-30T04:01:41.914Z,81.99
2018-09-30T04:04:10.104Z,80.96
2018-09-30T04:06:38.330Z,82.25
2018-09-30T04:09:07.867Z,80.76
2018-09-30T04:11:36.048Z,82.23
2018-09-30T04:14:04.261Z,83.19
2018-09-30T04:16:32.469Z,81.86
2018-09-30T04:19:00.661Z,83.42
2018-09-30T04:21:28.840Z,83.29
2018-09-30T04:24:02.696Z,82.57
2018-09-30T04:26:30.888Z,82.45
2018-09-30T04:28:59.076Z,82.63
2018-09-30T04:31:27.267Z,82.31
2018-09-30T04:33:55.450Z,81.53
2018-09-30T04:36:23.626Z,82.36
2018-09-30T04:38:51.832Z,81.46
2018-09-30T04:41:20.032Z,81.88
2018-09-30T04:43:48.235Z,83.14
2018-09-30T04:46:16.807Z,83.94
2018-09-30T04:48:44.980Z,83.91
2018-09-30T04:51:13.175Z,83.12
2018-09-30T04:53:41.410Z,83.52
2018-09-30T04:56:09.608Z,83.00
2018-09-30T04:58:37.827Z,83.26
2018-09-30T05:01:06.017Z,82.74
2018-09-30T05:03:34.200Z,84.29
2018-09-30T05:06:02.392Z,84.11
2018-09-30T05:08:30.677Z,83.19
2018-09-30T05:10:58.958Z,83.12
2018-09-30T05:13:28.256Z,86.08
2018-09-30T05:15:57.558Z,84.29
2018-09-30T05:18:25.768Z,84.92
2018-09-30T05:20:53.991Z,85.65
2018-09-30T05:23:22.176Z,87.04
2018-09-30T05:25:50.372Z,87.23
2018-09-30T05:28:18.560Z,87.08
2018-09-30T05:30:46.809Z,86.84
2018-09-30T05:33:14.999Z,85.30
2018-09-30T05:35:43.211Z,84.33
2018-09-30T05:38:11.406Z,85.03
2018-09-30T05:40:39.616Z,84.05
2018-09-30T05:43:07.805Z,84.08
2018-09-30T05:45:37.119Z,84.58
2018-09-30T05:48:05.411Z,85.56
2018-09-30T05:50:38.519Z,86.00
2018-09-30T05:53:07.812Z,86.48
2018-09-30T05:55:36.097Z,87.48
2018-09-30T05:58:04.427Z,87.11
2018-09-30T06:00:32.700Z,86.91
2018-09-30T06:03:00.912Z,88.01
2018-09-30T06:05:29.116Z,85.91
2018-09-30T06:07:57.313Z,86.08
2018-09-30T06:10:25.521Z,86.48
2018-09-30T06:12:54.756Z,86.13
2018-09-30T06:15:23.039Z,85.60
2018-09-30T06:17:51.312Z,86.97
2018-09-30T06:20:25.440Z,85.91
2018-09-30T06:22:53.836Z,86.86
2018-09-30T06:25:22.114Z,86.25
2018-09-30T06:27:50.404Z,87.54
2018-09-30T06:30:18.658Z,87.11
2018-09-30T06:32:46.896Z,87.05
2018-09-30T06:35:15.161Z,86.10
2018-09-30T06:37:47.548Z,85.91
2018-09-30T06:40:15.750Z,85.86
2018-09-30T06:42:44.984Z,84.68
2018-09-30T06:45:14.298Z,83.70
2018-09-30T06:47:42.568Z,83.05
2018-09-30T06:50:10.850Z,81.88
2018-09-30T06:52:39.142Z,81.44
2018-09-30T06:55:07.335Z,78.83
2018-09-30T06:57:36.648Z,78.84
2018-09-30T07:00:04.842Z,77.08
2018-09-30T07:02:33.037Z,76.14
2018-09-30T07:05:01.363Z,74.87
2018-09-30T07:07:29.406Z,74.87
2018-09-30T07:09:57.592Z,73.96
2018-09-30T07:12:25.780Z,74.52
2018-09-30T07:14:54.051Z,74.01
2018-09-30T07:17:22.509Z,73.56
2018-09-30T07:19:50.730Z,71.14
2018-09-30T07:22:18.970Z,70.44
2018-09-30T07:24:47.091Z,70.64
2018-09-30T07:27:15.388Z,70.73
2018-09-30T07:29:43.589Z,68.39
2018-09-30T07:32:11.936Z,65.50
2018-09-30T07:34:40.107Z,66.48
2018-09-30T07:37:08.304Z,63.74
2018-09-30T07:39:36.600Z,66.05
2018-09-30T07:42:04.836Z,64.84
2018-09-30T07:44:35.049Z,62.58
2018-09-30T07:47:03.311Z,59.82
2018-09-30T07:49:31.521Z,60.85
2018-09-30T07:51:59.775Z,63.25
2018-09-30T07:54:27.969Z,57.81
2018-09-30T07:56:56.460Z,55.66
2018-09-30T07:59:24.676Z,55.27
2018-09-30T08:01:52.910Z,54.25
2018-09-30T08:04:21.101Z,57.89
2018-09-30T08:06:49.312Z,56.84
2018-09-30T08:09:17.517Z,55.93
2018-09-30T08:11:45.716Z,55.91
2018-09-30T08:14:13.916Z,55.51
2018-09-30T08:16:42.191Z,55.60
2018-09-30T08:19:10.332Z,51.88
2018-09-30T08:21:38.541Z,52.62
2018-09-30T08:24:06.438Z,53.97
2018-09-30T08:26:34.584Z,52.94
2018-09-30T08:29:02.813Z,53.08
2018-09-30T08:31:31.124Z,54.02
2018-09-30T08:33:59.773Z,53.41
2018-09-30T08:36:27.995Z,53.40
2018-09-30T08:38:56.220Z,55.50
2018-09-30T08:41:24.380Z,54.54
2018-09-30T08:43:52.630Z,55.90
2018-09-30T08:46:20.872Z,55.68
2018-09-30T08:48:49.072Z,55.82
2018-09-30T08:51:17.324Z,56.78
2018-09-30T08:53:45.564Z,55.97
2018-09-30T08:56:13.823Z,54.79
2018-09-30T08:58:41.944Z,55.01
2018-09-30T09:01:10.137Z,55.95
2018-09-30T09:03:38.340Z,56.87
2018-09-30T09:06:06.583Z,56.60
2018-09-30T09:08:34.817Z,55.23
2018-09-30T09:11:03.013Z,55.92
2018-09-30T09:13:31.299Z,55.03
2018-09-30T09:15:59.500Z,55.33
2018-09-30T09:18:27.764Z,54.21
2018-09-30T09:20:56.097Z,53.87
2018-09-30T09:23:24.595Z,53.81
2018-09-30T09:25:52.835Z,52.21
2018-09-30T09:28:21.039Z,53.79
2018-09-30T09:30:49.321Z,52.92
2018-09-30T09:33:17.528Z,52.81
2018-09-30T09:35:45.712Z,52.87
2018-09-30T09:38:13.930Z,50.77
2018-09-30T09:40:42.151Z,50.86
2018-09-30T09:43:10.362Z,50.10
2018-09-30T09:45:38.541Z,49.16
2018-09-30T09:48:06.729Z,49.92
2018-09-30T09:50:34.916Z,48.65
2018-09-30T09:53:03.132Z,49.61
2018-09-30T09:55:31.361Z,47.98
2018-09-30T09:57:59.664Z,48.51
2018-09-30T10:00:30.807Z,49.10
2018-09-30T10:02:59.135Z,47.75
2018-09-30T10:05:27.348Z,45.57
2018-09-30T10:07:55.515Z,45.04
2018-09-30T10:10:23.712Z,48.04
2018-09-30T10:12:51.904Z,47.24
2018-09-30T10:15:20.115Z,48.11
2018-09-30T10:17:48.305Z,48.47
2018-09-30T10:20:16.473Z,45.88
2018-09-30T10:22:44.656Z,47.16
2018-09-30T10:25:12.844Z,46.43
2018-09-30T10:27:41.111Z,44.85
2018-09-30T10:30:09.291Z,45.63
2018-09-30T10:32:37.495Z,44.20
2018-09-30T10:35:05.800Z,44.03
2018-09-30T10:37:34.000Z,44.43
2018-09-30T10:40:02.212Z,44.19
2018-09-30T10:42:31.080Z,43.57
2018-09-30T10:44:59.277Z,42.91
2018-09-30T10:47:27.465Z,44.07
2018-09-30T10:49:55.660Z,44.47
2018-09-30T10:52:23.992Z,44.66
2018-09-30T10:54:52.180Z,43.88
2018-09-30T10:57:20.382Z,44.06
2018-09-30T10:59:48.580Z,44.19
2018-09-30T11:02:16.760Z,43.28
2018-09-30T11:04:44.959Z,42.38
2018-09-30T11:07:13.156Z,42.13
2018-09-30T11:09:41.434Z,42.35
2018-09-30T11:12:09.588Z,40.67
2018-09-30T11:14:37.789Z,40.19
2018-09-30T11:17:06.372Z,40.72
2018-09-30T11:19:34.568Z,40.20
2018-09-30T11:22:02.760Z,39.90
2018-09-30T11:24:30.942Z,39.92
2018-09-30T11:26:59.139Z,40.29
2018-09-30T11:29:27.350Z,41.13
2018-09-30T11:31:55.630Z,40.79
2018-09-30T11:34:23.748Z,40.25
2018-09-30T11:36:51.944Z,39.27
2018-09-30T11:39:20.128Z,40.13
2018-09-30T11:41:48.319Z,38.71
2018-09-30T11:44:16.534Z,39.07
2018-09-30T11:46:44.695Z,39.42
2018-09-30T11:49:12.884Z,40.09
2018-09-30T11:51:41.081Z,38.18
2018-09-30T11:54:09.407Z,40.24
2018-09-30T11:56:37.593Z,39.48
2018-09-30T11:59:05.817Z,37.90
2018-09-30T12:01:34.013Z,39.28
2018-09-30T12:04:02.457Z,39.98
2018-09-30T12:06:30.644Z,39.25
2018-09-30T12:08:58.833Z,39.46
2018-09-30T12:11:27.084Z,39.41
2018-09-30T12:13:55.256Z,37.64
2018-09-30T12:16:23.448Z,39.23
2018-09-30T12:18:51.687Z,38.09
2018-09-30T12:21:19.829Z,38.05
2018-09-30T12:23:48.009Z,38.90
2018-09-30T12:26:16.200Z,38.73
2018-09-30T12:28:44.417Z,37.79
2018-09-30T12:31:12.638Z,36.77
2018-09-30T12:33:40.825Z,38.28
2018-09-30T12:36:09.080Z,37.36
2018-09-30T12:38:37.424Z,36.96
2018-09-30T12:41:05.724Z,37.01
2018-09-30T12:43:33.918Z,37.35
2018-09-30T12:46:02.111Z,36.79
2018-09-30T12:48:30.312Z,38.31
2018-09-30T12:50:58.523Z,36.95
2018-09-30T12:53:26.716Z,37.30
2018-09-30T12:55:54.937Z,37.35
2018-09-30T12:58:23.132Z,37.59
2018-09-30T13:00:51.352Z,36.92
2018-09-30T13:03:19.548Z,37.15
2018-09-30T13:05:47.897Z,37.21
2018-09-30T13:08:16.092Z,37.87
2018-09-30T13:10:44.272Z,37.41
2018-09-30T13:13:12.485Z,36.82
2018-09-30T13:15:40.661Z,36.85
2018-09-30T13:18:08.877Z,37.78
2018-09-30T13:20:37.114Z,36.86
2018-09-30T13:23:05.296Z,36.25
2018-09-30T13:25:33.519Z,37.15
2018-09-30T13:28:01.708Z,36.12
2018-09-30T13:30:29.920Z,36.88
2018-09-30T13:32:58.117Z,37.57
2018-09-30T13:35:26.326Z,37.58
2018-09-30T13:37:54.507Z,36.17
2018-09-30T13:40:22.730Z,35.45
2018-09-30T13:42:50.897Z,35.85
2018-09-30T13:45:19.128Z,37.47
2018-09-30T13:47:47.329Z,37.02
2018-09-30T13:50:15.573Z,36.36
2018-09-30T13:52:43.768Z,36.92
2018-09-30T13:55:11.983Z,36.40
2018-09-30T13:57:40.184Z,36.18
2018-09-30T14:00:08.884Z,36.51
2018-09-30T14:02:37.160Z,37.25
2018-09-30T14:05:05.573Z,36.88
2018-09-30T14:07:33.781Z,36.55
2018-09-30T14:10:01.976Z,36.53
2018-09-30T14:12:30.181Z,36.17
2018-09-30T14:14:58.852Z,36.01
2018-09-30T14:17:27.953Z,37.77
2018-09-30T14:19:56.361Z,36.46
2018-09-30T14:22:25.024Z,36.58
2018-09-30T14:24:53.209Z,36.79
2018-09-30T14:27:21.598Z,37.13
2018-09-30T14:29:49.600Z,38.16
2018-09-30T14:32:17.800Z,37.88
2018-09-30T14:34:46.005Z,37.45
2018-09-30T14:37:14.217Z,37.87
2018-09-30T14:39:42.489Z,37.69
2018-09-30T14:42:10.715Z,37.48
2018-09-30T14:44:38.957Z,38.41
2018-09-30T14:47:07.164Z,37.42
2018-09-30T14:49:35.353Z,37.94
2018-09-30T14:52:03.569Z,37.92
2018-09-30T14:54:31.806Z,36.71
2018-09-30T14:56:59.960Z,37.13
2018-09-30T14:59:28.145Z,36.64
2018-09-30T15:01:56.337Z,37.02
2018-09-30T15:04:24.541Z,36.03
2018-09-30T15:06:52.739Z,35.52
2018-09-30T15:09:20.949Z,36.17
2018-09-30T15:11:49.144Z,37.07
2018-09-30T15:14:17.327Z,35.85
2018-09-30T15:16:45.548Z,36.79
2018-09-30T15:19:13.743Z,35.97
2018-09-30T15:21:42.240Z,34.93
2018-09-30T15:24:10.462Z,35.71
2018-09-30T15:26:38.667Z,35.83
2018-09-30T15:29:06.861Z,35.88
2018-09-30T15:31:35.065Z,36.39
2018-09-30T15:34:03.268Z,37.06
2018-09-30T15:36:31.447Z,36.69
2018-09-30T15:38:59.701Z,36.57
2018-09-30T15:41:27.887Z,36.44
2018-09-30T15:43:56.099Z,37.50
2018-09-30T15:46:25.897Z,36.85
2018-09-30T15:48:54.092Z,38.18
2018-09-30T15:51:22.459Z,36.85
2018-09-30T15:53:50.640Z,37.63
2018-09-30T15:56:18.831Z,37.50
2018-09-30T15:58:47.037Z,36.63
2018-09-30T16:01:15.259Z,38.78
2018-09-30T16:03:43.456Z,39.32
2018-09-30T16:06:11.674Z,39.29
2018-09-30T16:08:39.878Z,39.80
2018-09-30T16:11:08.057Z,39.63
2018-09-30T16:13:36.235Z,39.68
2018-09-30T16:16:04.448Z,39.68
2018-09-30T16:18:32.655Z,40.41
2018-09-30T16:21:00.839Z,40.45
2018-09-30T16:23:29.026Z,39.78
2018-09-30T16:25:57.212Z,40.11
2018-09-30T16:28:25.484Z,40.45
2018-09-30T16:30:53.659Z,40.89
2018-09-30T16:33:21.851Z,39.65
2018-09-30T16:35:50.056Z,40.79
2018-09-30T16:38:18.246Z,40.71
2018-09-30T16:40:46.445Z,40.79
2018-09-30T16:43:14.632Z,40.30
2018-09-30T16:45:42.823Z,40.97
2018-09-30T16:48:11.043Z,39.90
2018-09-30T16:50:39.286Z,40.31
2018-09-30T16:53:07.426Z,40.87
2018-09-30T16:55:35.616Z,41.28
2018-09-30T16:58:03.892Z,41.75
2018-09-30T17:00:32.131Z,41.85
2018-09-30T17:03:00.335Z,42.85
2018-09-30T17:05:28.999Z,43.11
2018-09-30T17:07:57.183Z,44.49
2018-09-30T17:10:25.372Z,44.78
2018-09-30T17:12:53.557Z,45.55
2018-09-30T17:15:21.748Z,45.52
2018-09-30T17:17:49.951Z,46.49
2018-09-30T17:20:18.136Z,46.38
2018-09-30T17:22:46.367Z,46.56
2018-09-30T17:25:14.580Z,46.98
2018-09-30T17:27:42.771Z,46.96
2018-09-30T17:30:10.969Z,47.47
2018-09-30T17:32:39.166Z,47.56
2018-09-30T17:35:07.396Z,47.83
2018-09-30T17:37:35.621Z,48.05
2018-09-30T17:40:03.836Z,48.54
2018-09-30T17:42:32.090Z,48.61
2018-09-30T17:45:00.284Z,49.49
2018-09-30T17:47:28.532Z,49.47
2018-09-30T17:49:56.710Z,49.82
2018-09-30T17:52:25.076Z,50.64
2018-09-30T17:54:54.764Z,50.56
2018-09-30T17:57:23.028Z,50.73
2018-09-30T17:59:51.512Z,51.04
2018-09-30T18:02:19.832Z,52.86
2018-09-30T18:04:48.045Z,52.71
2018-09-30T18:07:16.244Z,54.25
2018-09-30T18:09:44.456Z,54.07
2018-09-30T18:12:12.640Z,54.37
2018-09-30T18:14:40.860Z,54.51
2018-09-30T18:17:09.052Z,54.34
2018-09-30T18:19:37.250Z,55.06
2018-09-30T18:22:05.437Z,55.76
2018-09-30T18:24:35.551Z,55.07
2018-09-30T18:27:04.570Z,55.93
2018-09-30T18:29:32.772Z,55.80
2018-09-30T18:32:00.972Z,56.15
2018-09-30T18:34:29.183Z,56.23
2018-09-30T18:36:57.385Z,56.07
2018-09-30T18:39:25.625Z,56.67
2018-09-30T18:41:53.828Z,56.83
2018-09-30T18:44:22.025Z,57.52
2018-09-30T18:46:50.221Z,57.23
2018-09-30T18:49:19.215Z,58.23
2018-09-30T18:51:47.533Z,57.28
2018-09-30T18:54:15.763Z,58.06
2018-09-30T18:56:44.019Z,58.63
2018-09-30T18:59:12.328Z,57.96
2018-09-30T19:01:40.535Z,59.10
2018-09-30T19:04:08.754Z,59.44
2018-09-30T19:06:36.967Z,59.34
2018-09-30T19:09:07.492Z,59.81
2018-09-30T19:11:35.718Z,59.39
2018-09-30T19:14:04.005Z,59.68
2018-09-30T19:16:32.453Z,61.70
2018-09-30T19:19:00.667Z,60.88
2018-09-30T19:21:29.056Z,60.73
2018-09-30T19:23:57.313Z,61.46
2018-09-30T19:26:25.492Z,61.82
2018-09-30T19:28:53.764Z,62.94
2018-09-30T19:31:21.985Z,61.88
2018-09-30T19:33:50.223Z,62.65
2018-09-30T19:36:18.501Z,62.52
2018-09-30T19:38:46.652Z,62.07
2018-09-30T19:41:14.860Z,62.41
2018-09-30T19:43:43.093Z,63.72
2018-09-30T19:46:11.333Z,63.43
2018-09-30T19:48:39.560Z,64.54
2018-09-30T19:51:07.735Z,64.80
2018-09-30T19:53:35.959Z,64.05
2018-09-30T19:56:04.190Z,64.01
2018-09-30T19:58:32.449Z,64.04
2018-09-30T20:01:00.702Z,64.03
2018-09-30T20:03:28.892Z,63.60
2018-09-30T20:05:57.082Z,63.88
2018-09-30T20:08:25.316Z,63.82
2018-09-30T20:10:53.498Z,65.27
2018-09-30T20:13:21.688Z,65.25
2018-09-30T20:15:49.953Z,65.51
2018-09-30T20:18:18.181Z,64.80
2018-09-30T20:20:46.421Z,65.36
2018-09-30T20:23:14.612Z,65.29
2018-09-30T20:25:42.816Z,65.22
2018-09-30T20:28:11.012Z,65.60
2018-09-30T20:30:39.320Z,65.35
2018-09-30T20:33:07.604Z,65.44
2018-09-30T20:35:35.828Z,64.78
2018-09-30T20:38:04.050Z,64.56
2018-09-30T20:40:36.244Z,65.27
2018-09-30T20:43:04.435Z,66.34
2018-09-30T20:45:32.648Z,65.60
2018-09-30T20:48:00.861Z,65.57
2018-09-30T20:50:29.056Z,65.33
2018-09-30T20:52:57.241Z,66.78
2018-09-30T20:55:25.433Z,65.71
2018-09-30T20:57:53.643Z,65.22
2018-09-30T21:00:21.859Z,65.92
2018-09-30T21:02:50.211Z,65.44
2018-09-30T21:05:25.570Z,66.72
2018-09-30T21:07:54.408Z,67.71
2018-09-30T21:10:22.623Z,67.49
2018-09-30T21:12:50.872Z,67.18
2018-09-30T21:15:19.084Z,67.84
2018-09-30T21:17:47.358Z,67.33
2018-09-30T21:20:15.544Z,67.62
2018-09-30T21:22:43.784Z,68.30
2018-09-30T21:25:12.004Z,68.26
2018-09-30T21:27:40.233Z,68.21
2018-09-30T21:30:08.518Z,67.41
2018-09-30T21:32:36.712Z,67.95
2018-09-30T21:35:04.919Z,68.31
2018-09-30T21:37:33.110Z,68.69
2018-09-30T21:40:01.436Z,68.27
2018-09-30T21:42:29.632Z,69.60
2018-09-30T21:44:57.843Z,69.95
2018-09-30T21:47:26.044Z,69.37
2018-09-30T21:49:54.236Z,69.58
2018-09-30T21:52:22.424Z,69.00
2018-09-30T21:54:50.667Z,69.40
2018-09-30T21:57:18.844Z,69.00
2018-09-30T21:59:47.063Z,69.89
2018-09-30T22:02:15.280Z,69.67
2018-09-30T22:04:43.521Z,69.45
2018-09-30T22:07:11.712Z,69.04
2018-09-30T22:09:40.008Z,70.05
2018-09-30T22:12:08.197Z,70.75
2018-09-30T22:14:36.391Z,70.67
2018-09-30T22:17:04.605Z,69.71
2018-09-30T22:19:32.791Z,70.14
2018-09-30T22:22:01.005Z,70.25
2018-09-30T22:24:29.188Z,69.94
2018-09-30T22:26:57.593Z,69.33
2018-09-30T22:29:25.808Z,69.48
2018-09-30T22:31:54.035Z,69.27
2018-09-30T22:34:22.236Z,69.62
2018-09-30T22:36:50.446Z,68.99
2018-09-30T22:39:18.660Z,69.86
2018-09-30T22:41:46.910Z,69.16
2018-09-30T22:44:15.116Z,69.21
2018-09-30T22:46:43.333Z,69.06
2018-09-30T22:49:11.572Z,69.08
2018-09-30T22:51:39.772Z,68.78
2018-09-30T22:54:07.985Z,68.45
2018-09-30T22:56:36.207Z,68.97
2018-09-30T22:59:04.417Z,69.25
2018-09-30T23:01:32.603Z,70.22
2018-09-30T23:04:00.812Z,69.89
2018-09-30T23:06:29.020Z,70.24
2018-09-30T23:08:57.302Z,70.84
2018-09-30T23:11:25.483Z,70.49
2018-09-30T23:13:53.703Z,70.73
2018-09-30T23:16:21.900Z,71.98
2018-09-30T23:18:50.202Z,71.41
2018-09-30T23:21:18.387Z,71.41
2018-09-30T23:23:46.597Z,71.29
2018-09-30T23:26:14.791Z,71.42
2018-09-30T23:28:43.012Z,71.63
2018-09-30T23:31:11.182Z,71.90
2018-09-30T23:33:39.356Z,71.39
2018-09-30T23:36:07.564Z,71.30
2018-09-30T23:38:35.772Z,71.16
2018-09-30T23:41:03.996Z,72.24
2018-09-30T23:43:32.231Z,71.58
2018-09-30T23:46:00.853Z,71.60
2018-09-30T23:48:29.061Z,71.29
2018-09-30T23:50:57.316Z,71.57
2018-09-30T23:53:25.505Z,72.10
2018-09-30T23:55:53.736Z,71.39
2018-09-30T23:58:21.912Z,72.25
